sensor_id;sensor_type;location;lat;lon;timestamp;pressure;altitude;pressure_sealevel;temperature;humidity
6218;BME280;3142;48.206;11.550;2023-01-29T00:02:08;96649.47;;;2.07;81.73
6218;BME280;3142;48.206;11.550;2023-01-29T00:04:35;96658.75;;;2.10;81.79
6218;BME280;3142;48.206;11.550;2023-01-29T00:07:01;96653.69;;;2.08;82.77
6218;BME280;3142;48.206;11.550;2023-01-29T00:09:27;96659.00;;;2.07;82.16
6218;BME280;3142;48.206;11.550;2023-01-29T00:11:55;96653.44;;;2.12;81.72
6218;BME280;3142;48.206;11.550;2023-01-29T00:14:21;96654.41;;;2.11;82.57
6218;BME280;3142;48.206;11.550;2023-01-29T00:16:49;96659.00;;;2.07;81.84
6218;BME280;3142;48.206;11.550;2023-01-29T00:19:16;96661.56;;;2.07;81.68
6218;BME280;3142;48.206;11.550;2023-01-29T00:21:43;96660.84;;;2.05;81.81
6218;BME280;3142;48.206;11.550;2023-01-29T00:24:10;96669.53;;;2.04;82.23
6218;BME280;3142;48.206;11.550;2023-01-29T00:26:36;96667.34;;;1.99;81.69
6218;BME280;3142;48.206;11.550;2023-01-29T00:29:03;96674.81;;;2.02;81.72
6218;BME280;3142;48.206;11.550;2023-01-29T00:31:29;96679.84;;;2.04;81.76
6218;BME280;3142;48.206;11.550;2023-01-29T00:33:57;96677.75;;;2.09;81.91
6218;BME280;3142;48.206;11.550;2023-01-29T00:36:25;96672.59;;;2.09;81.39
6218;BME280;3142;48.206;11.550;2023-01-29T00:38:55;96670.81;;;2.10;81.53
6218;BME280;3142;48.206;11.550;2023-01-29T00:41:23;96667.22;;;2.01;81.58
6218;BME280;3142;48.206;11.550;2023-01-29T00:44:08;96670.47;;;2.03;81.53
6218;BME280;3142;48.206;11.550;2023-01-29T00:46:52;96666.25;;;2.02;82.14
6218;BME280;3142;48.206;11.550;2023-01-29T00:49:20;96665.78;;;2.08;81.91
6218;BME280;3142;48.206;11.550;2023-01-29T00:51:46;96671.63;;;2.10;81.58
6218;BME280;3142;48.206;11.550;2023-01-29T00:54:33;96666.59;;;2.08;81.52
6218;BME280;3142;48.206;11.550;2023-01-29T00:57:00;96672.19;;;2.14;80.92
6218;BME280;3142;48.206;11.550;2023-01-29T00:59:27;96670.84;;;1.98;81.06
6218;BME280;3142;48.206;11.550;2023-01-29T01:01:54;96667.09;;;1.91;81.10
6218;BME280;3142;48.206;11.550;2023-01-29T01:04:39;96671.44;;;1.91;81.87
6218;BME280;3142;48.206;11.550;2023-01-29T01:07:06;96670.28;;;1.95;81.19
6218;BME280;3142;48.206;11.550;2023-01-29T01:09:34;96664.75;;;1.99;80.96
6218;BME280;3142;48.206;11.550;2023-01-29T01:12:18;96667.06;;;2.02;80.89
6218;BME280;3142;48.206;11.550;2023-01-29T01:14:44;96671.69;;;1.99;80.43
6218;BME280;3142;48.206;11.550;2023-01-29T01:17:11;96666.88;;;1.94;80.81
6218;BME280;3142;48.206;11.550;2023-01-29T01:19:38;96672.94;;;2.04;80.36
6218;BME280;3142;48.206;11.550;2023-01-29T01:22:05;96677.06;;;2.07;80.25
6218;BME280;3142;48.206;11.550;2023-01-29T01:24:31;96671.28;;;2.03;80.71
6218;BME280;3142;48.206;11.550;2023-01-29T01:26:58;96672.00;;;2.05;79.91
6218;BME280;3142;48.206;11.550;2023-01-29T01:29:24;96677.66;;;1.99;79.59
6218;BME280;3142;48.206;11.550;2023-01-29T01:31:52;96673.06;;;2.03;79.07
6218;BME280;3142;48.206;11.550;2023-01-29T01:34:19;96681.19;;;1.98;79.13
6218;BME280;3142;48.206;11.550;2023-01-29T01:36:47;96682.69;;;2.01;78.11
6218;BME280;3142;48.206;11.550;2023-01-29T01:39:14;96685.91;;;1.93;78.23
6218;BME280;3142;48.206;11.550;2023-01-29T01:41:40;96684.13;;;1.94;78.45
6218;BME280;3142;48.206;11.550;2023-01-29T01:47:11;96674.63;;;1.94;77.79
6218;BME280;3142;48.206;11.550;2023-01-29T01:49:40;96684.44;;;2.00;77.85
6218;BME280;3142;48.206;11.550;2023-01-29T01:52:08;96684.88;;;2.05;76.73
6218;BME280;3142;48.206;11.550;2023-01-29T01:54:35;96677.88;;;2.07;76.23
6218;BME280;3142;48.206;11.550;2023-01-29T01:57:03;96676.34;;;2.05;76.67
6218;BME280;3142;48.206;11.550;2023-01-29T01:59:34;96672.72;;;2.07;76.13
6218;BME280;3142;48.206;11.550;2023-01-29T02:02:02;96673.66;;;2.06;76.53
6218;BME280;3142;48.206;11.550;2023-01-29T02:04:47;96674.00;;;2.02;76.45
6218;BME280;3142;48.206;11.550;2023-01-29T02:07:32;96673.19;;;2.01;76.12
6218;BME280;3142;48.206;11.550;2023-01-29T02:10:17;96673.75;;;2.05;76.20
6218;BME280;3142;48.206;11.550;2023-01-29T02:12:45;96680.59;;;2.06;75.66
6218;BME280;3142;48.206;11.550;2023-01-29T02:15:11;96680.59;;;2.06;75.25
6218;BME280;3142;48.206;11.550;2023-01-29T02:17:38;96677.78;;;1.98;75.26
6218;BME280;3142;48.206;11.550;2023-01-29T02:20:10;96681.69;;;1.92;75.41
6218;BME280;3142;48.206;11.550;2023-01-29T02:22:54;96682.50;;;1.93;75.98
6218;BME280;3142;48.206;11.550;2023-01-29T02:25:43;96678.03;;;1.95;76.10
6218;BME280;3142;48.206;11.550;2023-01-29T02:28:18;96676.88;;;1.88;76.48
6218;BME280;3142;48.206;11.550;2023-01-29T02:30:53;96666.41;;;1.89;76.07
6218;BME280;3142;48.206;11.550;2023-01-29T02:33:30;96676.25;;;1.95;75.73
6218;BME280;3142;48.206;11.550;2023-01-29T02:36:09;96667.72;;;1.95;75.89
6218;BME280;3142;48.206;11.550;2023-01-29T02:38:42;96674.50;;;1.96;75.97
6218;BME280;3142;48.206;11.550;2023-01-29T02:41:13;96671.56;;;2.00;76.51
6218;BME280;3142;48.206;11.550;2023-01-29T02:43:45;96659.34;;;2.02;76.66
6218;BME280;3142;48.206;11.550;2023-01-29T02:46:16;96661.91;;;2.02;76.60
6218;BME280;3142;48.206;11.550;2023-01-29T02:48:49;96657.44;;;2.04;76.74
6218;BME280;3142;48.206;11.550;2023-01-29T02:51:23;96656.41;;;2.07;76.43
6218;BME280;3142;48.206;11.550;2023-01-29T02:53:58;96639.50;;;2.03;77.00
6218;BME280;3142;48.206;11.550;2023-01-29T02:56:29;96653.84;;;2.07;76.91
6218;BME280;3142;48.206;11.550;2023-01-29T02:59:04;96656.63;;;2.04;76.55
6218;BME280;3142;48.206;11.550;2023-01-29T03:01:36;96652.53;;;2.01;76.51
6218;BME280;3142;48.206;11.550;2023-01-29T03:04:08;96658.03;;;2.08;76.98
6218;BME280;3142;48.206;11.550;2023-01-29T03:06:38;96653.84;;;2.07;76.98
6218;BME280;3142;48.206;11.550;2023-01-29T03:09:09;96663.34;;;2.06;76.35
6218;BME280;3142;48.206;11.550;2023-01-29T03:11:41;96657.44;;;2.04;76.71
6218;BME280;3142;48.206;11.550;2023-01-29T03:14:14;96655.81;;;2.03;76.91
6218;BME280;3142;48.206;11.550;2023-01-29T03:16:46;96659.34;;;2.02;76.47
6218;BME280;3142;48.206;11.550;2023-01-29T03:19:17;96664.19;;;1.96;76.17
6218;BME280;3142;48.206;11.550;2023-01-29T03:21:47;96661.03;;;1.92;76.13
6218;BME280;3142;48.206;11.550;2023-01-29T03:24:21;96661.03;;;1.92;76.79
6218;BME280;3142;48.206;11.550;2023-01-29T03:27:09;96676.03;;;1.87;76.40
6218;BME280;3142;48.206;11.550;2023-01-29T03:29:57;96684.34;;;1.91;76.25
6218;BME280;3142;48.206;11.550;2023-01-29T03:32:43;96675.06;;;1.99;76.07
6218;BME280;3142;48.206;11.550;2023-01-29T03:35:13;96675.16;;;2.09;76.09
6218;BME280;3142;48.206;11.550;2023-01-29T03:37:46;96668.03;;;2.01;76.30
6218;BME280;3142;48.206;11.550;2023-01-29T03:40:13;96661.13;;;1.91;75.89
6218;BME280;3142;48.206;11.550;2023-01-29T03:42:49;96666.19;;;1.92;76.03
6218;BME280;3142;48.206;11.550;2023-01-29T03:45:27;96661.13;;;1.91;75.95
6218;BME280;3142;48.206;11.550;2023-01-29T03:48:02;96657.88;;;1.89;76.17
6218;BME280;3142;48.206;11.550;2023-01-29T03:50:37;96647.66;;;1.87;75.55
6218;BME280;3142;48.206;11.550;2023-01-29T03:53:13;96641.56;;;1.88;75.89
6218;BME280;3142;48.206;11.550;2023-01-29T03:55:47;96638.03;;;1.89;75.79
6218;BME280;3142;48.206;11.550;2023-01-29T03:58:22;96631.25;;;1.88;75.90
6218;BME280;3142;48.206;11.550;2023-01-29T04:00:56;96634.38;;;1.92;75.49
6218;BME280;3142;48.206;11.550;2023-01-29T04:03:31;96631.81;;;1.92;75.13
6218;BME280;3142;48.206;11.550;2023-01-29T04:06:04;96624.91;;;1.92;74.93
6218;BME280;3142;48.206;11.550;2023-01-29T04:08:37;96631.72;;;1.93;75.44
6218;BME280;3142;48.206;11.550;2023-01-29T04:11:10;96635.25;;;1.92;75.17
6218;BME280;3142;48.206;11.550;2023-01-29T04:13:38;96634.50;;;1.90;74.76
6218;BME280;3142;48.206;11.550;2023-01-29T04:16:09;96637.22;;;1.89;74.50
6218;BME280;3142;48.206;11.550;2023-01-29T04:18:37;96634.31;;;1.82;74.75
6218;BME280;3142;48.206;11.550;2023-01-29T04:21:04;96642.31;;;1.79;74.79
6218;BME280;3142;48.206;11.550;2023-01-29T04:23:32;96638.78;;;1.80;74.45
6218;BME280;3142;48.206;11.550;2023-01-29T04:26:10;96640.44;;;1.81;74.13
6218;BME280;3142;48.206;11.550;2023-01-29T04:28:52;96637.59;;;1.84;74.40
6218;BME280;3142;48.206;11.550;2023-01-29T04:31:22;96639.09;;;1.87;74.60
6218;BME280;3142;48.206;11.550;2023-01-29T04:33:59;96646.72;;;1.88;74.65
6218;BME280;3142;48.206;11.550;2023-01-29T04:36:33;96637.34;;;1.87;74.61
6218;BME280;3142;48.206;11.550;2023-01-29T04:39:09;96647.19;;;1.93;73.70
6218;BME280;3142;48.206;11.550;2023-01-29T04:41:41;96648.97;;;1.93;74.64
6218;BME280;3142;48.206;11.550;2023-01-29T04:44:17;96643.66;;;1.94;74.50
6218;BME280;3142;48.206;11.550;2023-01-29T04:46:50;96646.31;;;2.04;73.79
6218;BME280;3142;48.206;11.550;2023-01-29T04:49:28;96645.28;;;2.06;73.63
6218;BME280;3142;48.206;11.550;2023-01-29T04:52:04;96636.00;;;2.04;73.69
6218;BME280;3142;48.206;11.550;2023-01-29T04:54:44;96635.16;;;2.03;73.84
6218;BME280;3142;48.206;11.550;2023-01-29T04:57:18;96623.72;;;1.96;73.92
6218;BME280;3142;48.206;11.550;2023-01-29T04:59:52;96624.31;;;1.89;73.79
6218;BME280;3142;48.206;11.550;2023-01-29T05:02:23;96635.84;;;1.85;74.06
6218;BME280;3142;48.206;11.550;2023-01-29T05:04:53;96633.13;;;1.86;74.50
6218;BME280;3142;48.206;11.550;2023-01-29T05:07:20;96642.63;;;1.86;74.45
6218;BME280;3142;48.206;11.550;2023-01-29T05:09:49;96645.34;;;1.84;74.16
6218;BME280;3142;48.206;11.550;2023-01-29T05:12:16;96649.44;;;1.87;73.82
6218;BME280;3142;48.206;11.550;2023-01-29T05:14:44;96642.88;;;1.83;74.22
6218;BME280;3142;48.206;11.550;2023-01-29T05:17:14;96648.03;;;1.83;74.17
6218;BME280;3142;48.206;11.550;2023-01-29T05:19:43;96655.66;;;1.84;74.30
6218;BME280;3142;48.206;11.550;2023-01-29T05:22:13;96648.59;;;1.86;74.20
6218;BME280;3142;48.206;11.550;2023-01-29T05:24:40;96656.91;;;1.90;74.08
6218;BME280;3142;48.206;11.550;2023-01-29T05:27:10;96670.75;;;1.89;74.95
6218;BME280;3142;48.206;11.550;2023-01-29T05:29:58;96675.66;;;1.92;74.17
6218;BME280;3142;48.206;11.550;2023-01-29T05:32:24;96671.44;;;1.91;75.06
6218;BME280;3142;48.206;11.550;2023-01-29T05:34:52;96677.34;;;1.93;74.95
6218;BME280;3142;48.206;11.550;2023-01-29T05:37:19;96677.44;;;1.91;74.60
6218;BME280;3142;48.206;11.550;2023-01-29T05:39:45;96675.09;;;1.88;74.85
6218;BME280;3142;48.206;11.550;2023-01-29T05:42:11;96673.47;;;1.87;75.30
6218;BME280;3142;48.206;11.550;2023-01-29T05:44:38;96676.03;;;1.87;75.23
6218;BME280;3142;48.206;11.550;2023-01-29T05:47:04;96680.63;;;1.84;74.92
6218;BME280;3142;48.206;11.550;2023-01-29T05:49:31;96683.78;;;1.87;75.31
6218;BME280;3142;48.206;11.550;2023-01-29T05:51:58;96683.75;;;1.98;75.80
6218;BME280;3142;48.206;11.550;2023-01-29T05:54:25;96677.75;;;2.09;75.91
6218;BME280;3142;48.206;11.550;2023-01-29T05:56:51;96680.63;;;2.16;75.52
6218;BME280;3142;48.206;11.550;2023-01-29T05:59:18;96686.50;;;2.18;75.19
6218;BME280;3142;48.206;11.550;2023-01-29T06:01:44;96690.63;;;2.20;75.24
6218;BME280;3142;48.206;11.550;2023-01-29T06:04:11;96685.94;;;2.14;75.28
6218;BME280;3142;48.206;11.550;2023-01-29T06:06:37;96676.69;;;2.12;75.00
6218;BME280;3142;48.206;11.550;2023-01-29T06:09:05;96670.56;;;2.13;75.23
6218;BME280;3142;48.206;11.550;2023-01-29T06:11:32;96673.16;;;2.13;75.08
6218;BME280;3142;48.206;11.550;2023-01-29T06:13:58;96676.09;;;2.08;74.65
6218;BME280;3142;48.206;11.550;2023-01-29T06:16:24;96666.00;;;2.05;74.76
6218;BME280;3142;48.206;11.550;2023-01-29T06:18:51;96671.16;;;2.05;74.62
6218;BME280;3142;48.206;11.550;2023-01-29T06:21:17;96664.97;;;2.07;75.13
6218;BME280;3142;48.206;11.550;2023-01-29T06:23:44;96670.34;;;2.04;74.30
6218;BME280;3142;48.206;11.550;2023-01-29T06:26:13;96673.44;;;1.98;74.82
6218;BME280;3142;48.206;11.550;2023-01-29T06:28:40;96668.28;;;1.98;74.90
6218;BME280;3142;48.206;11.550;2023-01-29T06:31:08;96677.91;;;1.96;74.59
6218;BME280;3142;48.206;11.550;2023-01-29T06:33:35;96682.69;;;2.01;75.22
6218;BME280;3142;48.206;11.550;2023-01-29T06:36:03;96684.06;;;2.05;74.70
6218;BME280;3142;48.206;11.550;2023-01-29T06:38:30;96682.31;;;2.05;74.26
6218;BME280;3142;48.206;11.550;2023-01-29T06:40:57;96683.84;;;2.08;74.45
6218;BME280;3142;48.206;11.550;2023-01-29T06:43:25;96687.47;;;2.05;75.05
6218;BME280;3142;48.206;11.550;2023-01-29T06:45:53;96676.47;;;2.03;74.56
6218;BME280;3142;48.206;11.550;2023-01-29T06:48:20;96687.28;;;1.97;74.58
6218;BME280;3142;48.206;11.550;2023-01-29T06:50:47;96685.16;;;1.91;74.80
6218;BME280;3142;48.206;11.550;2023-01-29T06:53:14;96688.69;;;1.90;75.11
6218;BME280;3142;48.206;11.550;2023-01-29T06:55:42;96682.84;;;1.88;74.73
6218;BME280;3142;48.206;11.550;2023-01-29T06:58:10;96682.97;;;1.87;74.55
6218;BME280;3142;48.206;11.550;2023-01-29T07:00:38;96684.47;;;1.89;74.36
6218;BME280;3142;48.206;11.550;2023-01-29T07:03:05;96688.09;;;1.98;74.25
6218;BME280;3142;48.206;11.550;2023-01-29T07:05:31;96687.38;;;2.07;74.29
6218;BME280;3142;48.206;11.550;2023-01-29T07:07:58;96679.38;;;2.10;73.74
6218;BME280;3142;48.206;11.550;2023-01-29T07:10:24;96676.84;;;1.99;74.09
6218;BME280;3142;48.206;11.550;2023-01-29T07:12:50;96673.06;;;2.03;73.89
6218;BME280;3142;48.206;11.550;2023-01-29T07:15:17;96677.44;;;1.91;73.40
6218;BME280;3142;48.206;11.550;2023-01-29T07:17:56;96665.28;;;1.82;73.81
6218;BME280;3142;48.206;11.550;2023-01-29T07:20:23;96657.78;;;1.79;74.58
6218;BME280;3142;48.206;11.550;2023-01-29T07:22:50;96660.03;;;1.72;73.69
6218;BME280;3142;48.206;11.550;2023-01-29T07:25:16;96662.97;;;1.68;73.39
6218;BME280;3142;48.206;11.550;2023-01-29T07:27:42;96656.41;;;1.64;73.68
6218;BME280;3142;48.206;11.550;2023-01-29T07:30:10;96658.75;;;1.67;73.56
6218;BME280;3142;48.206;11.550;2023-01-29T07:32:36;96652.44;;;1.60;73.82
6218;BME280;3142;48.206;11.550;2023-01-29T07:35:05;96655.72;;;1.62;73.71
6218;BME280;3142;48.206;11.550;2023-01-29T07:37:31;96643.06;;;1.59;73.43
6218;BME280;3142;48.206;11.550;2023-01-29T07:39:58;96644.22;;;1.66;72.75
6218;BME280;3142;48.206;11.550;2023-01-29T07:42:24;96641.84;;;1.74;72.92
6218;BME280;3142;48.206;11.550;2023-01-29T07:44:50;96643.94;;;1.80;72.23
6218;BME280;3142;48.206;11.550;2023-01-29T07:47:17;96639.50;;;1.82;71.97
6218;BME280;3142;48.206;11.550;2023-01-29T07:49:43;96643.22;;;1.78;72.29
6218;BME280;3142;48.206;11.550;2023-01-29T07:52:11;96644.44;;;1.74;71.72
6218;BME280;3142;48.206;11.550;2023-01-29T07:54:37;96639.28;;;1.63;72.37
6218;BME280;3142;48.206;11.550;2023-01-29T07:57:04;96642.25;;;1.58;72.94
6218;BME280;3142;48.206;11.550;2023-01-29T07:59:30;96643.31;;;1.56;72.90
6218;BME280;3142;48.206;11.550;2023-01-29T08:01:57;96645.06;;;1.55;73.04
6218;BME280;3142;48.206;11.550;2023-01-29T08:04:23;96649.53;;;1.53;73.03
6218;BME280;3142;48.206;11.550;2023-01-29T08:06:50;96643.06;;;1.59;73.50
6218;BME280;3142;48.206;11.550;2023-01-29T08:09:17;96637.31;;;1.66;73.53
6218;BME280;3142;48.206;11.550;2023-01-29T08:11:44;96644.31;;;1.75;72.99
6218;BME280;3142;48.206;11.550;2023-01-29T08:14:10;96651.81;;;1.78;73.29
6218;BME280;3142;48.206;11.550;2023-01-29T08:16:37;96651.34;;;1.73;72.68
6218;BME280;3142;48.206;11.550;2023-01-29T08:19:03;96644.81;;;1.69;72.28
6218;BME280;3142;48.206;11.550;2023-01-29T08:21:29;96649.25;;;1.67;72.08
6218;BME280;3142;48.206;11.550;2023-01-29T08:23:56;96658.06;;;1.65;71.78
6218;BME280;3142;48.206;11.550;2023-01-29T08:26:24;96656.63;;;1.72;72.55
6218;BME280;3142;48.206;11.550;2023-01-29T08:28:51;96660.38;;;1.79;71.76
6218;BME280;3142;48.206;11.550;2023-01-29T08:31:18;96663.66;;;1.81;72.48
6218;BME280;3142;48.206;11.550;2023-01-29T08:33:45;96670.91;;;1.76;71.39
6218;BME280;3142;48.206;11.550;2023-01-29T08:36:11;96670.22;;;1.74;71.54
6218;BME280;3142;48.206;11.550;2023-01-29T08:38:38;96664.81;;;1.77;71.52
6218;BME280;3142;48.206;11.550;2023-01-29T08:41:05;96666.78;;;1.85;71.61
6218;BME280;3142;48.206;11.550;2023-01-29T08:43:32;96675.09;;;1.88;71.62
6218;BME280;3142;48.206;11.550;2023-01-29T08:46:02;96684.34;;;1.91;72.03
6218;BME280;3142;48.206;11.550;2023-01-29T08:48:29;96688.22;;;1.96;72.06
6218;BME280;3142;48.206;11.550;2023-01-29T08:50:56;96688.78;;;2.00;72.54
6218;BME280;3142;48.206;11.550;2023-01-29T08:53:23;96686.66;;;2.05;71.64
6218;BME280;3142;48.206;11.550;2023-01-29T08:55:50;96692.41;;;2.08;72.08
6218;BME280;3142;48.206;11.550;2023-01-29T08:58:17;96695.56;;;2.12;71.66
6218;BME280;3142;48.206;11.550;2023-01-29T09:00:45;96701.28;;;2.16;72.10
6218;BME280;3142;48.206;11.550;2023-01-29T09:03:11;96701.84;;;2.19;72.10
6218;BME280;3142;48.206;11.550;2023-01-29T09:05:39;96694.56;;;2.24;72.25
6218;BME280;3142;48.206;11.550;2023-01-29T09:08:07;96703.25;;;2.23;72.37
6218;BME280;3142;48.206;11.550;2023-01-29T09:10:34;96703.53;;;2.20;71.86
6218;BME280;3142;48.206;11.550;2023-01-29T09:13:01;96709.72;;;2.18;72.43
6218;BME280;3142;48.206;11.550;2023-01-29T09:15:27;96717.34;;;2.19;72.56
6218;BME280;3142;48.206;11.550;2023-01-29T09:17:55;96714.66;;;2.21;72.49
6218;BME280;3142;48.206;11.550;2023-01-29T09:20:22;96719.69;;;2.22;72.11
6218;BME280;3142;48.206;11.550;2023-01-29T09:22:48;96717.81;;;2.24;72.52
6218;BME280;3142;48.206;11.550;2023-01-29T09:25:17;96724.34;;;2.28;72.45
6218;BME280;3142;48.206;11.550;2023-01-29T09:27:44;96723.78;;;2.25;72.40
6218;BME280;3142;48.206;11.550;2023-01-29T09:30:11;96722.03;;;2.25;72.78
6218;BME280;3142;48.206;11.550;2023-01-29T09:32:38;96725.56;;;2.24;72.41
6218;BME280;3142;48.206;11.550;2023-01-29T09:35:06;96727.06;;;2.27;72.16
6218;BME280;3142;48.206;11.550;2023-01-29T09:37:33;96735.97;;;2.34;71.78
6218;BME280;3142;48.206;11.550;2023-01-29T09:39:59;96728.25;;;2.23;72.29
6218;BME280;3142;48.206;11.550;2023-01-29T09:42:27;96736.25;;;2.20;72.43
6218;BME280;3142;48.206;11.550;2023-01-29T09:45:02;96737.91;;;2.21;71.31
6218;BME280;3142;48.206;11.550;2023-01-29T09:47:32;96742.38;;;2.07;71.48
6218;BME280;3142;48.206;11.550;2023-01-29T09:50:02;96747.06;;;2.02;72.06
6218;BME280;3142;48.206;11.550;2023-01-29T09:52:34;96733.22;;;2.03;72.02
6218;BME280;3142;48.206;11.550;2023-01-29T09:55:03;96736.41;;;2.07;72.19
6218;BME280;3142;48.206;11.550;2023-01-29T09:57:34;96741.66;;;2.05;71.91
6218;BME280;3142;48.206;11.550;2023-01-29T10:00:05;96735.59;;;2.06;71.87
6218;BME280;3142;48.206;11.550;2023-01-29T10:02:50;96732.19;;;2.06;71.36
6218;BME280;3142;48.206;11.550;2023-01-29T10:05:36;96728.03;;;2.15;71.80
6218;BME280;3142;48.206;11.550;2023-01-29T10:11:15;96736.03;;;2.12;71.28
6218;BME280;3142;48.206;11.550;2023-01-29T10:13:50;96737.22;;;2.07;71.54
6218;BME280;3142;48.206;11.550;2023-01-29T10:16:35;96727.25;;;2.03;71.30
6218;BME280;3142;48.206;11.550;2023-01-29T10:19:29;96732.66;;;2.00;71.08
6218;BME280;3142;48.206;11.550;2023-01-29T10:22:20;96724.53;;;2.04;71.06
6218;BME280;3142;48.206;11.550;2023-01-29T10:24:57;96723.50;;;2.07;71.31
6218;BME280;3142;48.206;11.550;2023-01-29T10:27:31;96719.03;;;2.09;70.70
6218;BME280;3142;48.206;11.550;2023-01-29T10:29:59;96727.38;;;2.01;71.34
6218;BME280;3142;48.206;11.550;2023-01-29T10:32:28;96724.19;;;2.09;71.72
6218;BME280;3142;48.206;11.550;2023-01-29T10:34:57;96724.84;;;2.22;70.57
6218;BME280;3142;48.206;11.550;2023-01-29T10:37:33;96724.06;;;2.11;70.79
6218;BME280;3142;48.206;11.550;2023-01-29T10:40:21;96717.84;;;2.13;71.38
6218;BME280;3142;48.206;11.550;2023-01-29T10:42:52;96713.50;;;2.14;70.89
6218;BME280;3142;48.206;11.550;2023-01-29T10:45:27;96716.75;;;2.27;71.00
6218;BME280;3142;48.206;11.550;2023-01-29T10:48:06;96708.75;;;2.30;69.81
6218;BME280;3142;48.206;11.550;2023-01-29T10:50:44;96713.56;;;2.34;69.90
6218;BME280;3142;48.206;11.550;2023-01-29T10:53:26;96706.50;;;2.36;69.86
6218;BME280;3142;48.206;11.550;2023-01-29T10:56:04;96713.91;;;2.30;70.16
6218;BME280;3142;48.206;11.550;2023-01-29T10:58:37;96713.66;;;2.33;70.11
6218;BME280;3142;48.206;11.550;2023-01-29T11:01:07;96704.41;;;2.30;70.49
6218;BME280;3142;48.206;11.550;2023-01-29T11:03:33;96706.97;;;2.30;70.58
6218;BME280;3142;48.206;11.550;2023-01-29T11:06:09;96703.41;;;2.43;69.89
6218;BME280;3142;48.206;11.550;2023-01-29T11:08:42;96699.63;;;2.47;69.72
6218;BME280;3142;48.206;11.550;2023-01-29T11:11:14;96701.16;;;2.49;69.91
6218;BME280;3142;48.206;11.550;2023-01-29T11:13:43;96696.00;;;2.49;69.54
6218;BME280;3142;48.206;11.550;2023-01-29T11:16:11;96687.88;;;2.54;69.77
6218;BME280;3142;48.206;11.550;2023-01-29T11:18:53;96693.72;;;2.56;69.82
6218;BME280;3142;48.206;11.550;2023-01-29T11:21:20;96689.25;;;2.58;69.03
6218;BME280;3142;48.206;11.550;2023-01-29T11:23:47;96681.00;;;2.43;68.36
6218;BME280;3142;48.206;11.550;2023-01-29T11:26:18;96685.50;;;2.30;69.00
6218;BME280;3142;48.206;11.550;2023-01-29T11:28:46;96686.44;;;2.29;68.54
6218;BME280;3142;48.206;11.550;2023-01-29T11:31:24;96672.56;;;2.41;68.34
6218;BME280;3142;48.206;11.550;2023-01-29T11:33:52;96676.16;;;2.50;67.67
6218;BME280;3142;48.206;11.550;2023-01-29T11:36:21;96678.78;;;2.59;67.44
6218;BME280;3142;48.206;11.550;2023-01-29T11:39:09;96673.50;;;2.40;67.19
6218;BME280;3142;48.206;11.550;2023-01-29T11:41:44;96677.97;;;2.38;67.41
6218;BME280;3142;48.206;11.550;2023-01-29T11:44:28;96666.44;;;2.42;67.85
6218;BME280;3142;48.206;11.550;2023-01-29T11:46:56;96651.34;;;2.37;67.73
6218;BME280;3142;48.206;11.550;2023-01-29T11:49:31;96641.00;;;2.37;68.13
6218;BME280;3142;48.206;11.550;2023-01-29T11:52:00;96636.41;;;2.41;67.84
6218;BME280;3142;48.206;11.550;2023-01-29T11:54:31;96617.25;;;2.44;67.82
6218;BME280;3142;48.206;11.550;2023-01-29T11:57:01;96609.78;;;2.41;67.38
6218;BME280;3142;48.206;11.550;2023-01-29T11:59:40;96598.06;;;2.36;67.93
6218;BME280;3142;48.206;11.550;2023-01-29T12:02:32;96601.75;;;2.44;67.92
6218;BME280;3142;48.206;11.550;2023-01-29T12:05:03;96591.16;;;2.47;67.21
6218;BME280;3142;48.206;11.550;2023-01-29T12:07:32;96589.53;;;2.46;67.61
6218;BME280;3142;48.206;11.550;2023-01-29T12:09:59;96591.88;;;2.49;68.02
6218;BME280;3142;48.206;11.550;2023-01-29T12:12:30;96597.34;;;2.55;67.87
6218;BME280;3142;48.206;11.550;2023-01-29T12:15:09;96607.53;;;2.57;67.98
6218;BME280;3142;48.206;11.550;2023-01-29T12:17:42;96606.59;;;2.58;68.58
6218;BME280;3142;48.206;11.550;2023-01-29T12:20:12;96600.13;;;2.63;68.27
6218;BME280;3142;48.206;11.550;2023-01-29T12:22:46;96602.03;;;2.61;69.09
6218;BME280;3142;48.206;11.550;2023-01-29T12:25:20;96609.09;;;2.69;68.13
6218;BME280;3142;48.206;11.550;2023-01-29T12:27:54;96620.38;;;2.68;67.88
6218;BME280;3142;48.206;11.550;2023-01-29T12:30:27;96618.75;;;2.67;68.61
6218;BME280;3142;48.206;11.550;2023-01-29T12:33:00;96620.00;;;2.73;68.59
6218;BME280;3142;48.206;11.550;2023-01-29T12:35:32;96611.63;;;2.80;68.25
6218;BME280;3142;48.206;11.550;2023-01-29T12:38:02;96603.13;;;2.68;67.58
6218;BME280;3142;48.206;11.550;2023-01-29T12:40:36;96600.00;;;2.65;67.95
6218;BME280;3142;48.206;11.550;2023-01-29T12:43:12;96592.72;;;2.59;68.63
6218;BME280;3142;48.206;11.550;2023-01-29T12:45:41;96589.19;;;2.60;67.61
6218;BME280;3142;48.206;11.550;2023-01-29T12:48:12;96585.25;;;2.56;68.65
6218;BME280;3142;48.206;11.550;2023-01-29T12:50:39;96585.69;;;2.61;67.97
6218;BME280;3142;48.206;11.550;2023-01-29T12:53:12;96577.44;;;2.67;68.46
6218;BME280;3142;48.206;11.550;2023-01-29T12:55:46;96573.91;;;2.68;68.19
6218;BME280;3142;48.206;11.550;2023-01-29T12:58:21;96570.88;;;2.63;68.35
6218;BME280;3142;48.206;11.550;2023-01-29T13:00:50;96563.81;;;2.65;68.09
6218;BME280;3142;48.206;11.550;2023-01-29T13:03:23;96554.88;;;2.69;68.43
6218;BME280;3142;48.206;11.550;2023-01-29T13:05:53;96553.78;;;2.72;68.14
6218;BME280;3142;48.206;11.550;2023-01-29T13:08:25;96543.16;;;2.65;67.64
6218;BME280;3142;48.206;11.550;2023-01-29T13:10:53;96536.91;;;2.67;68.08
6218;BME280;3142;48.206;11.550;2023-01-29T13:13:26;96530.78;;;2.68;68.07
6218;BME280;3142;48.206;11.550;2023-01-29T13:15:56;96529.56;;;2.63;67.30
6218;BME280;3142;48.206;11.550;2023-01-29T13:18:38;96530.66;;;2.60;67.07
6218;BME280;3142;48.206;11.550;2023-01-29T13:21:11;96531.00;;;2.56;67.39
6218;BME280;3142;48.206;11.550;2023-01-29T13:23:42;96521.38;;;2.58;67.41
6218;BME280;3142;48.206;11.550;2023-01-29T13:26:10;96521.38;;;2.58;67.76
6218;BME280;3142;48.206;11.550;2023-01-29T13:28:38;96519.19;;;2.53;67.53
6218;BME280;3142;48.206;11.550;2023-01-29T13:31:26;96526.81;;;2.55;67.75
6218;BME280;3142;48.206;11.550;2023-01-29T13:33:58;96523.28;;;2.56;68.09
6218;BME280;3142;48.206;11.550;2023-01-29T13:36:28;96512.56;;;2.60;67.97
6218;BME280;3142;48.206;11.550;2023-01-29T13:38:59;96520.06;;;2.63;68.43
6218;BME280;3142;48.206;11.550;2023-01-29T13:41:32;96509.59;;;2.65;68.45
6218;BME280;3142;48.206;11.550;2023-01-29T13:44:00;96511.91;;;2.68;67.87
6218;BME280;3142;48.206;11.550;2023-01-29T13:46:28;96504.69;;;2.72;68.16
6218;BME280;3142;48.206;11.550;2023-01-29T13:48:55;96503.59;;;2.64;68.01